sensor_id;sensor_type;location;lat;lon;timestamp;pressure;altitude;pressure_sealevel;temperature;humidity
55032;BME280;40928;51.076;7.950;2023-02-03T00:01:20;97845.69;;;5.47;100.00
55032;BME280;40928;51.076;7.950;2023-02-03T00:03:47;97842.81;;;5.42;100.00
55032;BME280;40928;51.076;7.950;2023-02-03T00:06:13;97840.97;;;5.42;100.00
55032;BME280;40928;51.076;7.950;2023-02-03T00:08:38;97837.50;;;5.42;100.00
55032;BME280;40928;51.076;7.950;2023-02-03T00:11:04;97846.53;;;5.47;100.00
55032;BME280;40928;51.076;7.950;2023-02-03T00:13:30;97832.44;;;5.47;100.00
55032;BME280;40928;51.076;7.950;2023-02-03T00:15:55;97825.91;;;5.43;100.00
55032;BME280;40928;51.076;7.950;2023-02-03T00:18:21;97825.44;;;5.39;100.00
55032;BME280;40928;51.076;7.950;2023-02-03T00:20:46;97822.63;;;5.41;100.00
55032;BME280;40928;51.076;7.950;2023-02-03T00:23:12;97805.97;;;5.47;100.00
55032;BME280;40928;51.076;7.950;2023-02-03T00:25:38;97810.00;;;5.43;100.00
55032;BME280;40928;51.076;7.950;2023-02-03T00:28:04;97815.19;;;5.51;100.00
55032;BME280;40928;51.076;7.950;2023-02-03T00:30:33;97803.88;;;5.42;100.00
55032;BME280;40928;51.076;7.950;2023-02-03T00:32:58;97797.00;;;5.48;100.00
55032;BME280;40928;51.076;7.950;2023-02-03T00:35:25;97796.56;;;5.44;100.00
55032;BME280;40928;51.076;7.950;2023-02-03T00:37:52;97800.41;;;5.42;100.00
55032;BME280;40928;51.076;7.950;2023-02-03T00:40:20;97796.19;;;5.47;100.00
55032;BME280;40928;51.076;7.950;2023-02-03T00:42:46;97786.03;;;5.51;100.00
55032;BME280;40928;51.076;7.950;2023-02-03T00:45:12;97791.34;;;5.51;100.00
55032;BME280;40928;51.076;7.950;2023-02-03T00:47:39;97799.22;;;5.44;100.00
55032;BME280;40928;51.076;7.950;2023-02-03T00:50:05;97799.41;;;5.43;100.00
55032;BME280;40928;51.076;7.950;2023-02-03T00:52:31;97788.81;;;5.43;100.00
55032;BME280;40928;51.076;7.950;2023-02-03T00:54:57;97788.19;;;5.41;100.00
55032;BME280;40928;51.076;7.950;2023-02-03T00:57:22;97794.94;;;5.43;100.00
55032;BME280;40928;51.076;7.950;2023-02-03T00:59:48;97791.63;;;5.41;100.00
55032;BME280;40928;51.076;7.950;2023-02-03T01:02:13;97780.47;;;5.46;100.00
55032;BME280;40928;51.076;7.950;2023-02-03T01:04:41;97795.19;;;5.48;100.00
55032;BME280;40928;51.076;7.950;2023-02-03T01:07:06;97800.84;;;5.60;100.00
55032;BME280;40928;51.076;7.950;2023-02-03T01:09:33;97794.00;;;5.51;100.00
55032;BME280;40928;51.076;7.950;2023-02-03T01:11:59;97792.19;;;5.52;100.00
55032;BME280;40928;51.076;7.950;2023-02-03T01:14:24;97785.41;;;5.49;100.00
55032;BME280;40928;51.076;7.950;2023-02-03T01:16:50;97779.47;;;5.47;100.00
55032;BME280;40928;51.076;7.950;2023-02-03T01:19:16;97782.75;;;5.49;100.00
55032;BME280;40928;51.076;7.950;2023-02-03T01:21:42;97786.69;;;5.53;100.00
55032;BME280;40928;51.076;7.950;2023-02-03T01:24:07;97793.34;;;5.49;100.00
55032;BME280;40928;51.076;7.950;2023-02-03T01:26:37;97798.91;;;5.54;100.00
55032;BME280;40928;51.076;7.950;2023-02-03T01:29:02;97802.94;;;5.50;100.00
55032;BME280;40928;51.076;7.950;2023-02-03T01:31:34;97795.38;;;5.47;100.00
55032;BME280;40928;51.076;7.950;2023-02-03T01:34:02;97799.66;;;5.48;100.00
55032;BME280;40928;51.076;7.950;2023-02-03T01:36:30;97783.97;;;5.46;100.00
55032;BME280;40928;51.076;7.950;2023-02-03T01:38:56;97804.31;;;5.46;100.00
55032;BME280;40928;51.076;7.950;2023-02-03T01:41:28;97799.84;;;5.46;100.00
55032;BME280;40928;51.076;7.950;2023-02-03T01:43:57;97812.25;;;5.46;100.00
55032;BME280;40928;51.076;7.950;2023-02-03T01:48:51;97810.53;;;5.53;100.00
55032;BME280;40928;51.076;7.950;2023-02-03T01:51:18;97795.69;;;5.59;100.00
55032;BME280;40928;51.076;7.950;2023-02-03T01:53:45;97779.00;;;5.58;100.00
55032;BME280;40928;51.076;7.950;2023-02-03T01:56:11;97791.47;;;5.64;100.00
55032;BME280;40928;51.076;7.950;2023-02-03T01:58:54;97795.06;;;5.57;100.00
55032;BME280;40928;51.076;7.950;2023-02-03T02:01:21;97808.88;;;5.52;100.00
55032;BME280;40928;51.076;7.950;2023-02-03T02:03:51;97800.72;;;5.54;100.00
55032;BME280;40928;51.076;7.950;2023-02-03T02:06:18;97801.44;;;5.62;100.00
55032;BME280;40928;51.076;7.950;2023-02-03T02:08:47;97818.53;;;5.60;100.00
55032;BME280;40928;51.076;7.950;2023-02-03T02:11:13;97820.06;;;5.69;100.00
55032;BME280;40928;51.076;7.950;2023-02-03T02:13:40;97816.72;;;5.60;100.00
55032;BME280;40928;51.076;7.950;2023-02-03T02:16:57;97797.91;;;5.55;100.00
55032;BME280;40928;51.076;7.950;2023-02-03T02:30:53;97804.50;;;5.59;100.00
55032;BME280;40928;51.076;7.950;2023-02-03T02:33:43;97799.00;;;5.61;100.00
55032;BME280;40928;51.076;7.950;2023-02-03T02:36:27;97797.16;;;5.61;100.00
55032;BME280;40928;51.076;7.950;2023-02-03T02:41:38;97760.06;;;5.61;100.00
55032;BME280;40928;51.076;7.950;2023-02-03T02:44:10;97770.28;;;5.64;100.00
55032;BME280;40928;51.076;7.950;2023-02-03T02:47:17;97773.44;;;5.53;100.00
55032;BME280;40928;51.076;7.950;2023-02-03T02:49:59;97766.13;;;5.55;100.00
55032;BME280;40928;51.076;7.950;2023-02-03T02:52:30;97777.94;;;5.53;100.00
55032;BME280;40928;51.076;7.950;2023-02-03T02:55:04;97761.84;;;5.54;100.00
55032;BME280;40928;51.076;7.950;2023-02-03T02:57:34;97747.31;;;5.50;100.00
55032;BME280;40928;51.076;7.950;2023-02-03T03:00:04;97744.03;;;5.48;100.00
55032;BME280;40928;51.076;7.950;2023-02-03T03:02:34;97748.22;;;5.57;100.00
55032;BME280;40928;51.076;7.950;2023-02-03T03:05:07;97733.56;;;5.61;100.00
55032;BME280;40928;51.076;7.950;2023-02-03T03:07:58;97744.28;;;5.53;100.00
55032;BME280;40928;51.076;7.950;2023-02-03T03:10:30;97732.06;;;5.52;100.00
55032;BME280;40928;51.076;7.950;2023-02-03T03:13:05;97743.34;;;5.61;100.00
55032;BME280;40928;51.076;7.950;2023-02-03T03:15:33;97748.22;;;5.57;100.00
55032;BME280;40928;51.076;7.950;2023-02-03T03:18:05;97730.78;;;5.48;100.00
55032;BME280;40928;51.076;7.950;2023-02-03T03:20:34;97713.44;;;5.45;100.00
55032;BME280;40928;51.076;7.950;2023-02-03T03:23:05;97707.34;;;5.45;100.00
55032;BME280;40928;51.076;7.950;2023-02-03T03:25:42;97720.81;;;5.50;100.00
55032;BME280;40928;51.076;7.950;2023-02-03T03:28:14;97736.34;;;5.53;100.00
55032;BME280;40928;51.076;7.950;2023-02-03T03:30:41;97764.22;;;5.49;100.00
55032;BME280;40928;51.076;7.950;2023-02-03T03:33:08;97770.41;;;5.56;100.00
55032;BME280;40928;51.076;7.950;2023-02-03T03:35:46;97783.28;;;5.59;100.00
55032;BME280;40928;51.076;7.950;2023-02-03T03:38:30;97807.31;;;5.58;100.00
55032;BME280;40928;51.076;7.950;2023-02-03T03:41:15;97812.09;;;5.47;100.00
55032;BME280;40928;51.076;7.950;2023-02-03T03:43:45;97799.94;;;5.53;100.00
55032;BME280;40928;51.076;7.950;2023-02-03T03:46:34;97781.50;;;5.45;100.00
55032;BME280;40928;51.076;7.950;2023-02-03T03:49:04;97771.69;;;5.60;100.00
55032;BME280;40928;51.076;7.950;2023-02-03T03:51:56;97770.09;;;5.44;100.00
55032;BME280;40928;51.076;7.950;2023-02-03T03:54:25;97769.28;;;5.44;100.00
55032;BME280;40928;51.076;7.950;2023-02-03T03:57:09;97776.81;;;5.47;100.00
55032;BME280;40928;51.076;7.950;2023-02-03T03:59:42;97780.09;;;5.49;100.00
55032;BME280;40928;51.076;7.950;2023-02-03T04:02:11;97784.03;;;5.53;100.00
55032;BME280;40928;51.076;7.950;2023-02-03T04:04:39;97784.75;;;5.62;100.00
55032;BME280;40928;51.076;7.950;2023-02-03T04:07:05;97773.06;;;5.56;100.00
55032;BME280;40928;51.076;7.950;2023-02-03T04:09:31;97781.59;;;5.52;100.00
55032;BME280;40928;51.076;7.950;2023-02-03T04:11:56;97760.94;;;5.47;100.00
55032;BME280;40928;51.076;7.950;2023-02-03T04:14:33;97752.97;;;5.47;100.00
55032;BME280;40928;51.076;7.950;2023-02-03T04:16:59;97755.91;;;5.52;100.00
55032;BME280;40928;51.076;7.950;2023-02-03T04:19:25;97738.06;;;5.61;100.00
55032;BME280;40928;51.076;7.950;2023-02-03T04:21:51;97749.31;;;5.48;100.00
55032;BME280;40928;51.076;7.950;2023-02-03T04:24:17;97776.72;;;5.55;100.00
55032;BME280;40928;51.076;7.950;2023-02-03T04:26:42;97761.13;;;5.45;100.00
55032;BME280;40928;51.076;7.950;2023-02-03T04:29:08;97752.97;;;5.47;100.00
55032;BME280;40928;51.076;7.950;2023-02-03T04:31:34;97752.44;;;5.52;100.00
55032;BME280;40928;51.076;7.950;2023-02-03T04:34:00;97747.59;;;5.55;100.00
55032;BME280;40928;51.076;7.950;2023-02-03T04:36:25;97748.06;;;5.66;100.00
55032;BME280;40928;51.076;7.950;2023-02-03T04:38:51;97743.66;;;5.51;100.00
55032;BME280;40928;51.076;7.950;2023-02-03T04:41:17;97742.38;;;5.47;100.00
55032;BME280;40928;51.076;7.950;2023-02-03T04:43:42;97735.53;;;5.53;100.00
55032;BME280;40928;51.076;7.950;2023-02-03T04:46:08;97740.75;;;5.46;100.00
55032;BME280;40928;51.076;7.950;2023-02-03T04:48:35;97743.59;;;5.44;100.00
55032;BME280;40928;51.076;7.950;2023-02-03T04:51:01;97733.91;;;5.52;100.00
55032;BME280;40928;51.076;7.950;2023-02-03T04:53:27;97737.03;;;5.40;100.00
55032;BME280;40928;51.076;7.950;2023-02-03T04:55:53;97724.78;;;5.39;100.00
55032;BME280;40928;51.076;7.950;2023-02-03T04:58:18;97724.78;;;5.39;100.00
55032;BME280;40928;51.076;7.950;2023-02-03T05:00:44;97734.00;;;5.43;100.00
55032;BME280;40928;51.076;7.950;2023-02-03T05:03:09;97727.31;;;5.47;100.00
55032;BME280;40928;51.076;7.950;2023-02-03T05:05:35;97732.81;;;5.46;100.00
55032;BME280;40928;51.076;7.950;2023-02-03T05:08:01;97731.19;;;5.45;100.00
55032;BME280;40928;51.076;7.950;2023-02-03T05:10:27;97733.44;;;5.48;100.00
55032;BME280;40928;51.076;7.950;2023-02-03T05:12:53;97721.47;;;5.52;100.00
55032;BME280;40928;51.076;7.950;2023-02-03T05:15:19;97726.50;;;5.47;100.00
55032;BME280;40928;51.076;7.950;2023-02-03T05:17:44;97715.66;;;5.42;100.00
55032;BME280;40928;51.076;7.950;2023-02-03T05:20:10;97712.00;;;5.43;100.00
55032;BME280;40928;51.076;7.950;2023-02-03T05:22:37;97698.75;;;5.43;100.00
55032;BME280;40928;51.076;7.950;2023-02-03T05:25:03;97708.59;;;5.49;100.00
55032;BME280;40928;51.076;7.950;2023-02-03T05:27:29;97700.06;;;5.54;100.00
55032;BME280;40928;51.076;7.950;2023-02-03T05:29:55;97714.88;;;5.48;100.00
55032;BME280;40928;51.076;7.950;2023-02-03T05:32:21;97705.75;;;5.51;100.00
55032;BME280;40928;51.076;7.950;2023-02-03T05:34:46;97707.00;;;5.55;100.00
55032;BME280;40928;51.076;7.950;2023-02-03T05:37:24;97705.50;;;5.67;100.00
55032;BME280;40928;51.076;7.950;2023-02-03T05:39:54;97715.84;;;5.62;100.00
55032;BME280;40928;51.076;7.950;2023-02-03T05:42:45;97715.16;;;5.53;100.00
55032;BME280;40928;51.076;7.950;2023-02-03T05:45:11;97715.84;;;5.62;100.00
55032;BME280;40928;51.076;7.950;2023-02-03T05:47:36;97722.09;;;5.54;100.00
55032;BME280;40928;51.076;7.950;2023-02-03T05:50:02;97719.50;;;5.61;100.00
55032;BME280;40928;51.076;7.950;2023-02-03T05:52:28;97723.38;;;5.58;100.00
55032;BME280;40928;51.076;7.950;2023-02-03T05:54:53;97733.13;;;5.58;100.00
55032;BME280;40928;51.076;7.950;2023-02-03T05:57:19;97756.53;;;5.54;100.00
55032;BME280;40928;51.076;7.950;2023-02-03T05:59:44;97710.59;;;5.47;100.00
55032;BME280;40928;51.076;7.950;2023-02-03T06:02:10;97721.03;;;5.48;100.00
55032;BME280;40928;51.076;7.950;2023-02-03T06:04:35;97724.94;;;5.53;100.00
55032;BME280;40928;51.076;7.950;2023-02-03T06:07:01;97732.44;;;5.49;100.00
55032;BME280;40928;51.076;7.950;2023-02-03T06:09:26;97738.38;;;5.51;100.00
55032;BME280;40928;51.076;7.950;2023-02-03T06:11:52;97738.56;;;5.49;100.00
55032;BME280;40928;51.076;7.950;2023-02-03T06:14:17;97732.63;;;5.47;100.00
55032;BME280;40928;51.076;7.950;2023-02-03T06:16:43;97734.44;;;5.47;100.00
55032;BME280;40928;51.076;7.950;2023-02-03T06:19:09;97722.84;;;5.48;100.00
55032;BME280;40928;51.076;7.950;2023-02-03T06:21:34;97736.09;;;5.48;100.00
55032;BME280;40928;51.076;7.950;2023-02-03T06:24:00;97728.44;;;5.38;100.00
55032;BME280;40928;51.076;7.950;2023-02-03T06:26:25;97755.63;;;5.47;100.00
55032;BME280;40928;51.076;7.950;2023-02-03T06:28:51;97750.53;;;5.45;100.00
55032;BME280;40928;51.076;7.950;2023-02-03T06:31:16;97764.41;;;5.47;100.00
55032;BME280;40928;51.076;7.950;2023-02-03T06:33:43;97761.63;;;5.56;100.00
55032;BME280;40928;51.076;7.950;2023-02-03T06:36:08;97747.59;;;5.55;100.00
55032;BME280;40928;51.076;7.950;2023-02-03T06:38:34;97756.72;;;5.53;100.00
55032;BME280;40928;51.076;7.950;2023-02-03T06:40:59;97757.09;;;5.49;100.00
55032;BME280;40928;51.076;7.950;2023-02-03T06:43:25;97741.22;;;5.49;100.00
55032;BME280;40928;51.076;7.950;2023-02-03T06:45:51;97741.22;;;5.49;100.00
55032;BME280;40928;51.076;7.950;2023-02-03T06:51:07;97754.63;;;5.48;100.00
55032;BME280;40928;51.076;7.950;2023-02-03T06:53:32;97753.25;;;5.52;100.00
55032;BME280;40928;51.076;7.950;2023-02-03T06:55:58;97756.91;;;5.51;100.00
55032;BME280;40928;51.076;7.950;2023-02-03T06:58:26;97750.34;;;5.47;100.00
55032;BME280;40928;51.076;7.950;2023-02-03T07:00:54;97753.44;;;5.51;100.00
55032;BME280;40928;51.076;7.950;2023-02-03T07:03:20;97751.75;;;5.43;100.00
55032;BME280;40928;51.076;7.950;2023-02-03T07:05:45;97739.13;;;5.45;100.00
55032;BME280;40928;51.076;7.950;2023-02-03T07:08:11;97748.09;;;5.44;100.00
55032;BME280;40928;51.076;7.950;2023-02-03T07:10:37;97744.44;;;5.45;100.00
55032;BME280;40928;51.076;7.950;2023-02-03T07:13:05;97746.03;;;5.46;100.00
55032;BME280;40928;51.076;7.950;2023-02-03T07:15:31;97746.44;;;5.43;100.00
55032;BME280;40928;51.076;7.950;2023-02-03T07:17:57;97741.31;;;5.41;100.00
55032;BME280;40928;51.076;7.950;2023-02-03T07:20:23;97740.13;;;5.44;100.00
55032;BME280;40928;51.076;7.950;2023-02-03T07:22:56;97745.03;;;5.47;100.00
55032;BME280;40928;51.076;7.950;2023-02-03T07:25:22;97742.78;;;5.44;100.00
55032;BME280;40928;51.076;7.950;2023-02-03T07:27:48;97764.97;;;5.43;100.00
55032;BME280;40928;51.076;7.950;2023-02-03T07:30:15;97745.44;;;5.44;100.00
55032;BME280;40928;51.076;7.950;2023-02-03T07:32:47;97755.03;;;5.45;100.00
55032;BME280;40928;51.076;7.950;2023-02-03T07:35:13;97752.19;;;5.46;100.00
55032;BME280;40928;51.076;7.950;2023-02-03T07:37:38;97748.09;;;5.44;100.00
55032;BME280;40928;51.076;7.950;2023-02-03T07:40:04;97752.88;;;5.55;100.00
55032;BME280;40928;51.076;7.950;2023-02-03T07:42:29;97756.53;;;5.54;100.00
55032;BME280;40928;51.076;7.950;2023-02-03T07:44:55;97746.13;;;5.53;100.00
55032;BME280;40928;51.076;7.950;2023-02-03T07:47:21;97746.50;;;5.49;100.00
55032;BME280;40928;51.076;7.950;2023-02-03T07:49:46;97729.66;;;5.57;100.00
55032;BME280;40928;51.076;7.950;2023-02-03T07:52:12;97740.91;;;5.59;100.00
55032;BME280;40928;51.076;7.950;2023-02-03T07:54:37;97740.28;;;5.57;100.00
55032;BME280;40928;51.076;7.950;2023-02-03T07:57:03;97739.19;;;5.52;100.00
55032;BME280;40928;51.076;7.950;2023-02-03T07:59:30;97730.97;;;5.46;100.00
55032;BME280;40928;51.076;7.950;2023-02-03T08:01:57;97727.69;;;5.44;100.00
55032;BME280;40928;51.076;7.950;2023-02-03T08:04:23;97736.47;;;5.45;100.00
55032;BME280;40928;51.076;7.950;2023-02-03T08:06:51;97726.63;;;5.39;100.00
55032;BME280;40928;51.076;7.950;2023-02-03T08:09:20;97721.59;;;5.44;100.00
55032;BME280;40928;51.076;7.950;2023-02-03T08:11:48;97720.59;;;5.45;100.00
55032;BME280;40928;51.076;7.950;2023-02-03T08:14:21;97723.16;;;5.38;100.00
55032;BME280;40928;51.076;7.950;2023-02-03T08:16:46;97724.63;;;5.41;100.00
55032;BME280;40928;51.076;7.950;2023-02-03T08:19:13;97737.66;;;5.42;100.00
55032;BME280;40928;51.076;7.950;2023-02-03T08:21:38;97748.09;;;5.44;100.00
55032;BME280;40928;51.076;7.950;2023-02-03T08:24:06;97753.38;;;5.44;100.00
55032;BME280;40928;51.076;7.950;2023-02-03T08:26:36;97767.63;;;5.43;100.00
55032;BME280;40928;51.076;7.950;2023-02-03T08:29:02;97766.78;;;5.42;100.00
55032;BME280;40928;51.076;7.950;2023-02-03T08:31:28;97764.34;;;5.41;100.00
55032;BME280;40928;51.076;7.950;2023-02-03T08:33:54;97758.84;;;5.42;100.00
55032;BME280;40928;51.076;7.950;2023-02-03T08:36:21;97750.09;;;5.42;100.00
55032;BME280;40928;51.076;7.950;2023-02-03T08:38:47;97746.03;;;5.46;100.00
55032;BME280;40928;51.076;7.950;2023-02-03T08:41:15;97748.63;;;5.39;100.00
55032;BME280;40928;51.076;7.950;2023-02-03T08:43:43;97752.91;;;5.40;100.00
55032;BME280;40928;51.076;7.950;2023-02-03T08:46:10;97753.38;;;5.44;100.00
55032;BME280;40928;51.076;7.950;2023-02-03T08:48:37;97751.34;;;5.46;100.00
55032;BME280;40928;51.076;7.950;2023-02-03T08:51:09;97750.59;;;5.52;100.00
55032;BME280;40928;51.076;7.950;2023-02-03T08:53:35;97752.44;;;5.52;100.00
55032;BME280;40928;51.076;7.950;2023-02-03T08:56:08;97747.31;;;5.50;100.00
55032;BME280;40928;51.076;7.950;2023-02-03T08:58:35;97742.44;;;5.54;100.00
55032;BME280;40928;51.076;7.950;2023-02-03T09:01:20;97735.72;;;5.51;100.00
55032;BME280;40928;51.076;7.950;2023-02-03T09:03:45;97745.09;;;5.54;100.00
55032;BME280;40928;51.076;7.950;2023-02-03T09:06:11;97753.88;;;5.54;100.00
55032;BME280;40928;51.076;7.950;2023-02-03T09:08:41;97766.22;;;5.47;100.00
55032;BME280;40928;51.076;7.950;2023-02-03T09:11:12;97767.88;;;5.48;100.00
55032;BME280;40928;51.076;7.950;2023-02-03T09:13:39;97767.69;;;5.49;100.00
55032;BME280;40928;51.076;7.950;2023-02-03T09:16:07;97754.69;;;5.55;100.00
55032;BME280;40928;51.076;7.950;2023-02-03T09:18:33;97739.94;;;5.45;100.00
55032;BME280;40928;51.076;7.950;2023-02-03T09:21:01;97743.28;;;5.54;100.00
55032;BME280;40928;51.076;7.950;2023-02-03T09:23:26;97761.41;;;5.51;100.00
55032;BME280;40928;51.076;7.950;2023-02-03T09:25:52;97762.78;;;5.46;100.00
55032;BME280;40928;51.076;7.950;2023-02-03T09:28:17;97757.84;;;5.43;100.00
55032;BME280;40928;51.076;7.950;2023-02-03T09:30:43;97749.91;;;5.43;100.00
55032;BME280;40928;51.076;7.950;2023-02-03T09:33:08;97735.59;;;5.59;100.00
55032;BME280;40928;51.076;7.950;2023-02-03T09:35:34;97732.69;;;5.54;100.00
55032;BME280;40928;51.076;7.950;2023-02-03T09:37:59;97735.72;;;5.51;100.00
55032;BME280;40928;51.076;7.950;2023-02-03T09:40:32;97736.72;;;5.50;100.00
55032;BME280;40928;51.076;7.950;2023-02-03T09:45:34;97749.31;;;5.48;100.00
55032;BME280;40928;51.076;7.950;2023-02-03T09:48:04;97745.03;;;5.47;100.00
55032;BME280;40928;51.076;7.950;2023-02-03T09:50:33;97745.25;;;5.45;100.00
55032;BME280;40928;51.076;7.950;2023-02-03T09:53:04;97745.25;;;5.45;100.00
55032;BME280;40928;51.076;7.950;2023-02-03T09:55:41;97745.25;;;5.45;100.00
55032;BME280;40928;51.076;7.950;2023-02-03T09:58:11;97730.16;;;5.46;100.00
55032;BME280;40928;51.076;7.950;2023-02-03T10:00:50;97727.25;;;5.41;100.00
55032;BME280;40928;51.076;7.950;2023-02-03T10:09:00;97732.97;;;5.59;100.00
55032;BME280;40928;51.076;7.950;2023-02-03T10:17:26;97722.53;;;5.58;100.00
55032;BME280;40928;51.076;7.950;2023-02-03T10:20:07;97732.69;;;5.54;100.00
55032;BME280;40928;51.076;7.950;2023-02-03T10:22:42;97734.59;;;5.60;100.00
55032;BME280;40928;51.076;7.950;2023-02-03T10:27:41;97739.81;;;5.54;100.00
55032;BME280;40928;51.076;7.950;2023-02-03T10:32:59;97752.31;;;5.60;100.00
55032;BME280;40928;51.076;7.950;2023-02-03T10:41:23;97768.69;;;5.70;100.00
55032;BME280;40928;51.076;7.950;2023-02-03T10:43:50;97759.31;;;5.68;100.00
55032;BME280;40928;51.076;7.950;2023-02-03T10:46:28;97759.31;;;5.68;100.00
55032;BME280;40928;51.076;7.950;2023-02-03T10:48:54;97759.75;;;5.71;100.00
55032;BME280;40928;51.076;7.950;2023-02-03T10:51:29;97756.47;;;5.69;100.00
55032;BME280;40928;51.076;7.950;2023-02-03T10:53:59;97768.28;;;5.67;100.00
55032;BME280;40928;51.076;7.950;2023-02-03T10:56:29;97765.81;;;5.65;100.00
55032;BME280;40928;51.076;7.950;2023-02-03T10:58:57;97763.97;;;5.66;100.00
55032;BME280;40928;51.076;7.950;2023-02-03T11:01:37;97770.28;;;5.64;100.00
55032;BME280;40928;51.076;7.950;2023-02-03T11:04:06;97775.66;;;5.71;100.00
55032;BME280;40928;51.076;7.950;2023-02-03T11:06:57;97765.94;;;5.78;100.00
55032;BME280;40928;51.076;7.950;2023-02-03T11:09:43;97773.84;;;5.72;100.00
55032;BME280;40928;51.076;7.950;2023-02-03T11:12:12;97756.28;;;5.71;100.00
55032;BME280;40928;51.076;7.950;2023-02-03T11:14:44;97759.44;;;5.81;100.00
55032;BME280;40928;51.076;7.950;2023-02-03T11:17:23;97746.38;;;5.79;100.00
55032;BME280;40928;51.076;7.950;2023-02-03T11:20:12;97741.09;;;5.79;100.00
55032;BME280;40928;51.076;7.950;2023-02-03T11:22:40;97744.31;;;5.75;100.00
55032;BME280;40928;51.076;7.950;2023-02-03T11:25:19;97751.16;;;5.69;100.00
55032;BME280;40928;51.076;7.950;2023-02-03T11:27:46;97734.50;;;5.75;100.00
55032;BME280;40928;51.076;7.950;2023-02-03T11:30:19;97732.44;;;5.71;100.00
55032;BME280;40928;51.076;7.950;2023-02-03T11:32:52;97747.97;;;5.74;100.00
55032;BME280;40928;51.076;7.950;2023-02-03T11:35:21;97738.13;;;5.68;100.00
55032;BME280;40928;51.076;7.950;2023-02-03T11:37:57;97745.06;;;5.69;100.00
55032;BME280;40928;51.076;7.950;2023-02-03T11:40:29;97746.31;;;5.73;100.00
55032;BME280;40928;51.076;7.950;2023-02-03T11:45:39;97758.25;;;5.84;100.00
55032;BME280;40928;51.076;7.950;2023-02-03T11:59:37;97763.88;;;5.74;100.00
55032;BME280;40928;51.076;7.950;2023-02-03T12:02:37;97759.94;;;5.70;100.00
55032;BME280;40928;51.076;7.950;2023-02-03T12:05:26;97731.38;;;5.65;100.00
55032;BME280;40928;51.076;7.950;2023-02-03T12:10:48;97740.03;;;5.74;100.00
55032;BME280;40928;51.076;7.950;2023-02-03T12:13:27;97741.66;;;5.75;100.00
55032;BME280;40928;51.076;7.950;2023-02-03T12:18:46;97736.97;;;5.77;100.00
55032;BME280;40928;51.076;7.950;2023-02-03T12:24:25;97735.97;;;5.78;100.00
55032;BME280;40928;51.076;7.950;2023-02-03T12:30:02;97736.53;;;5.73;100.00
55032;BME280;40928;51.076;7.950;2023-02-03T12:32:36;97745.19;;;5.82;100.00
55032;BME280;40928;51.076;7.950;2023-02-03T12:37:53;97753.69;;;5.77;100.00
55032;BME280;40928;51.076;7.950;2023-02-03T12:40:45;97735.97;;;5.78;100.00
55032;BME280;40928;51.076;7.950;2023-02-03T12:45:39;97735.00;;;5.86;100.00
55032;BME280;40928;51.076;7.950;2023-02-03T12:48:08;97739.28;;;5.87;100.00
55032;BME280;40928;51.076;7.950;2023-02-03T12:50:44;97737.84;;;5.84;100.00
55032;BME280;40928;51.076;7.950;2023-02-03T12:53:28;97752.94;;;5.84;100.00
55032;BME280;40928;51.076;7.950;2023-02-03T12:58:27;97751.31;;;5.83;100.00
55032;BME280;40928;51.076;7.950;2023-02-03T13:01:02;97750.97;;;5.92;100.00
55032;BME280;40928;51.076;7.950;2023-02-03T13:06:15;97752.38;;;5.88;100.00
55032;BME280;40928;51.076;7.950;2023-02-03T13:11:55;97734.63;;;5.89;100.00
55032;BME280;40928;51.076;7.950;2023-02-03T13:14:41;97735.69;;;5.94;100.00
55032;BME280;40928;51.076;7.950;2023-02-03T13:20:14;97749.22;;;6.00;100.00
55032;BME280;40928;51.076;7.950;2023-02-03T13:22:41;97737.53;;;5.94;100.00
55032;BME280;40928;51.076;7.950;2023-02-03T13:41:54;97727.44;;;6.04;100.00
55032;BME280;40928;51.076;7.950;2023-02-03T13:44:25;97724.38;;;6.01;100.00
55032;BME280;40928;51.076;7.950;2023-02-03T13:46:54;97732.31;;;6.01;100.00
55032;BME280;40928;51.076;7.950;2023-02-03T13:49:30;97737.63;;;6.01;100.00
55032;BME280;40928;51.076;7.950;2023-02-03T13:51:56;97729.66;;;6.01;100.00
55032;BME280;40928;51.076;7.950;2023-02-03T13:54:42;97731.94;;;6.04;100.00
55032;BME280;40928;51.076;7.950;2023-02-03T13:57:32;97733.38;;;6.06;100.00
55032;BME280;40928;51.076;7.950;2023-02-03T13:59:59;97736.22;;;6.05;100.00
55032;BME280;40928;51.076;7.950;2023-02-03T14:04:55;97750.56;;;6.11;100.00
55032;BME280;40928;51.076;7.950;2023-02-03T14:07:38;97746.69;;;6.13;100.00
55032;BME280;40928;51.076;7.950;2023-02-03T14:10:24;97744.66;;;6.15;100.00
55032;BME280;40928;51.076;7.950;2023-02-03T14:22:51;97766.25;;;6.12;100.00
55032;BME280;40928;51.076;7.950;2023-02-03T14:25:20;97781.47;;;6.25;100.00
55032;BME280;40928;51.076;7.950;2023-02-03T14:27:47;97787.03;;;6.30;100.00
55032;BME280;40928;51.076;7.950;2023-02-03T14:30:23;97781.31;;;6.33;100.00
55032;BME280;40928;51.076;7.950;2023-02-03T14:32:55;97774.81;;;6.36;100.00
55032;BME280;40928;51.076;7.950;2023-02-03T14:35:29;97781.19;;;6.42;100.00
55032;BME280;40928;51.076;7.950;2023-02-03T14:38:04;97791.75;;;6.35;100.00
55032;BME280;40928;51.076;7.950;2023-02-03T14:41:01;97795.41;;;6.34;100.00
55032;BME280;40928;51.076;7.950;2023-02-03T14:49:11;97812.34;;;6.33;100.00
55032;BME280;40928;51.076;7.950;2023-02-03T14:59:53;97805.97;;;6.27;100.00
55032;BME280;40928;51.076;7.950;2023-02-03T15:02:26;97806.13;;;6.25;100.00
55032;BME280;40928;51.076;7.950;2023-02-03T15:07:38;97825.72;;;6.24;100.00
55032;BME280;40928;51.076;7.950;2023-02-03T15:12:46;97832.22;;;6.22;100.00
55032;BME280;40928;51.076;7.950;2023-02-03T15:15:29;97843.22;;;6.19;100.00
55032;BME280;40928;51.076;7.950;2023-02-03T15:17:57;97853.38;;;6.15;100.00
55032;BME280;40928;51.076;7.950;2023-02-03T15:20:36;97861.66;;;6.05;100.00
55032;BME280;40928;51.076;7.950;2023-02-03T15:23:22;97863.66;;;6.03;100.00
55032;BME280;40928;51.076;7.950;2023-02-03T15:26:24;97877.47;;;5.99;100.00
55032;BME280;40928;51.076;7.950;2023-02-03T15:28:57;97879.84;;;5.93;100.00
55032;BME280;40928;51.076;7.950;2023-02-03T15:31:31;97886.56;;;5.89;100.00